createdAt,value
2019-05-13T00:01:56.973Z,2.92
2019-05-13T00:04:00.433Z,3.37
2019-05-13T00:06:04.370Z,3.00
2019-05-13T00:08:08.341Z,3.20
2019-05-13T00:10:14.372Z,3.12
2019-05-13T00:12:17.570Z,3.05
2019-05-13T00:14:21.154Z,3.30
2019-05-13T00:16:24.613Z,3.20
2019-05-13T00:18:28.395Z,3.45
2019-05-13T00:20:33.831Z,3.20
2019-05-13T00:22:37.762Z,3.33
2019-05-13T00:24:43.701Z,3.10
2019-05-13T00:26:46.853Z,3.67
2019-05-13T00:28:50.321Z,3.27
2019-05-13T00:30:54.384Z,3.52
2019-05-13T00:32:58.013Z,3.25
2019-05-13T00:35:03.810Z,3.17
2019-05-13T00:37:11.278Z,3.52
2019-05-13T00:39:11.954Z,3.20
2019-05-13T00:41:15.681Z,3.45
2019-05-13T00:43:19.680Z,3.52
2019-05-13T00:45:24.504Z,4.58
2019-05-13T00:47:28.232Z,3.90
2019-05-13T00:49:31.705Z,3.98
2019-05-13T00:51:35.605Z,4.35
2019-05-13T00:53:39.138Z,3.77
2019-05-13T00:55:44.582Z,3.60
2019-05-13T00:57:48.253Z,3.92
2019-05-13T00:59:54.115Z,3.67
2019-05-13T01:01:57.485Z,3.52
2019-05-13T01:04:00.973Z,3.77
2019-05-13T01:06:04.509Z,3.62
2019-05-13T01:08:08.031Z,3.30
2019-05-13T01:10:13.368Z,3.58
2019-05-13T01:12:17.913Z,3.60
2019-05-13T01:14:23.369Z,3.20
2019-05-13T01:16:26.697Z,3.08
2019-05-13T01:18:30.465Z,3.50
2019-05-13T01:20:34.757Z,3.25
2019-05-13T01:22:38.453Z,3.58
2019-05-13T01:24:43.650Z,3.58
2019-05-13T01:26:47.441Z,2.95
2019-05-13T01:28:53.439Z,3.30
2019-05-13T01:30:56.377Z,3.37
2019-05-13T01:32:59.918Z,3.10
2019-05-13T01:35:04.877Z,2.92
2019-05-13T01:37:08.411Z,2.90
2019-05-13T01:39:13.910Z,3.35
2019-05-13T01:41:17.124Z,3.60
2019-05-13T01:43:20.935Z,3.45
2019-05-13T01:45:24.466Z,3.30
2019-05-13T01:47:28.308Z,3.27
2019-05-13T01:49:33.725Z,3.85
2019-05-13T01:51:37.113Z,3.42
2019-05-13T01:53:40.573Z,2.85
2019-05-13T01:55:44.388Z,3.40
2019-05-13T01:57:48.137Z,3.10
2019-05-13T01:59:53.781Z,3.22
2019-05-13T02:01:58.082Z,3.10
2019-05-13T02:04:04.105Z,3.77
2019-05-13T02:06:07.171Z,3.58
2019-05-13T02:08:10.825Z,3.60
2019-05-13T02:10:16.340Z,3.58
2019-05-13T02:12:19.977Z,3.72
2019-05-13T02:14:23.770Z,3.25
2019-05-13T02:16:27.713Z,3.80
2019-05-13T02:18:33.939Z,3.87
2019-05-13T02:20:37.030Z,3.98
2019-05-13T02:22:40.488Z,3.45
2019-05-13T02:24:44.684Z,4.22
2019-05-13T02:26:48.470Z,4.08
2019-05-13T02:28:53.975Z,3.87
2019-05-13T02:30:57.283Z,3.95
2019-05-13T02:33:02.843Z,4.53
2019-05-13T02:35:06.991Z,3.67
2019-05-13T02:37:12.789Z,3.62
2019-05-13T02:39:15.832Z,3.72
2019-05-13T02:41:22.574Z,3.67
2019-05-13T02:43:25.121Z,4.20
2019-05-13T02:45:28.823Z,3.90
2019-05-13T02:47:33.148Z,4.03
2019-05-13T02:49:36.782Z,3.98
2019-05-13T02:51:42.899Z,3.55
2019-05-13T02:53:45.930Z,3.98
2019-05-13T02:55:52.474Z,3.95
2019-05-13T02:57:55.843Z,3.50
2019-05-13T02:59:59.397Z,3.30
2019-05-13T03:02:03.883Z,3.50
2019-05-13T03:04:12.865Z,3.10
2019-05-13T03:06:15.827Z,3.40
2019-05-13T03:08:38.503Z,3.20
2019-05-13T03:10:25.193Z,4.97
2019-05-13T03:12:32.263Z,3.00
2019-05-13T03:14:35.147Z,3.33
2019-05-13T03:16:42.756Z,3.87
2019-05-13T03:18:46.509Z,3.92
2019-05-13T03:20:53.027Z,3.80
2019-05-13T03:22:55.230Z,3.80
2019-05-13T03:25:02.828Z,3.90
2019-05-13T03:27:04.250Z,3.98
2019-05-13T03:29:08.117Z,3.47
2019-05-13T03:31:17.088Z,3.50
2019-05-13T03:33:19.789Z,3.92
2019-05-13T03:35:27.244Z,3.25
2019-05-13T03:37:28.160Z,3.67
2019-05-13T03:39:33.347Z,3.72
2019-05-13T03:41:42.396Z,3.70
2019-05-13T03:43:45.001Z,4.20
2019-05-13T03:45:52.629Z,4.12
2019-05-13T03:47:56.952Z,4.40
2019-05-13T03:50:03.637Z,4.12
2019-05-13T03:52:06.145Z,4.50
2019-05-13T03:54:12.856Z,4.35
2019-05-13T03:56:15.706Z,4.12
2019-05-13T03:58:19.344Z,3.80
2019-05-13T04:00:23.785Z,3.87
2019-05-13T04:02:27.633Z,4.08
2019-05-13T04:04:32.440Z,3.83
2019-05-13T04:06:36.490Z,4.20
2019-05-13T04:08:42.982Z,4.20
2019-05-13T04:10:45.617Z,4.03
2019-05-13T04:12:52.434Z,4.30
2019-05-13T04:14:55.389Z,3.92
2019-05-13T04:17:02.476Z,4.30
2019-05-13T04:19:04.505Z,4.03
2019-05-13T04:21:08.209Z,3.85
2019-05-13T04:23:12.879Z,3.55
2019-05-13T04:25:16.723Z,3.20
2019-05-13T04:27:23.336Z,3.25
2019-05-13T04:29:25.956Z,3.65
2019-05-13T04:31:33.054Z,3.27
2019-05-13T04:33:34.968Z,3.27
2019-05-13T04:35:38.594Z,3.20
2019-05-13T04:37:43.157Z,3.00
2019-05-13T04:39:51.550Z,2.83
2019-05-13T04:41:53.060Z,2.98
2019-05-13T04:43:56.715Z,3.15
2019-05-13T04:46:02.529Z,3.10
2019-05-13T04:48:06.037Z,3.35
2019-05-13T04:50:12.583Z,3.25
2019-05-13T04:52:15.367Z,3.90
2019-05-13T04:54:22.299Z,3.10
2019-05-13T04:56:24.090Z,3.37
2019-05-13T04:58:28.172Z,3.30
2019-05-13T05:01:08.946Z,3.37
2019-05-13T05:03:45.612Z,2.98
2019-05-13T05:05:52.468Z,3.22
2019-05-13T05:07:57.614Z,3.67
2019-05-13T05:10:30.511Z,3.22
2019-05-13T05:12:42.508Z,3.40
2019-05-13T05:17:22.300Z,2.62
2019-05-13T05:20:03.657Z,3.10
2019-05-13T05:22:22.156Z,3.12
2019-05-13T05:27:13.194Z,3.55
2019-05-13T05:29:42.205Z,3.55
2019-05-13T05:32:06.821Z,3.85
2019-05-13T05:34:16.641Z,3.67
2019-05-13T05:39:01.695Z,3.75
2019-05-13T05:41:07.092Z,4.12
2019-05-13T05:43:11.635Z,3.30
2019-05-13T05:45:15.860Z,3.90
2019-05-13T05:47:21.621Z,3.40
2019-05-13T05:49:26.473Z,3.47
2019-05-13T05:51:31.491Z,3.92
2019-05-13T05:53:35.581Z,3.37
2019-05-13T05:55:41.357Z,4.10
2019-05-13T05:57:46.806Z,3.47
2019-05-13T05:59:51.934Z,3.92
2019-05-13T06:01:56.751Z,4.60
2019-05-13T06:04:01.579Z,4.42
2019-05-13T06:06:05.441Z,3.83
2019-05-13T06:08:11.428Z,3.90
2019-05-13T06:10:15.437Z,4.45
2019-05-13T06:12:21.388Z,4.53
2019-05-13T06:14:24.746Z,4.65
2019-05-13T06:16:28.696Z,4.03
2019-05-13T06:18:32.716Z,4.25
2019-05-13T06:20:36.733Z,3.85
2019-05-13T06:22:42.384Z,3.83
2019-05-13T06:24:45.733Z,4.40
2019-05-13T06:26:49.376Z,4.80
2019-05-13T06:28:52.912Z,4.20
2019-05-13T06:30:56.374Z,4.55
2019-05-13T06:33:01.609Z,4.67
2019-05-13T06:35:06.028Z,4.42
2019-05-13T06:37:11.431Z,4.53
2019-05-13T06:39:14.683Z,4.70
2019-05-13T06:41:18.229Z,5.10
2019-05-13T06:43:21.729Z,4.65
2019-05-13T06:45:25.339Z,4.35
2019-05-13T06:47:28.877Z,4.30
2019-05-13T06:49:32.707Z,4.78
2019-05-13T06:51:36.437Z,4.90
2019-05-13T06:53:41.447Z,5.17
2019-05-13T06:55:45.198Z,5.03
2019-05-13T06:57:51.507Z,4.40
2019-05-13T06:59:54.470Z,5.03
2019-05-13T07:01:57.960Z,5.12
2019-05-13T07:04:02.525Z,4.90
2019-05-13T07:06:06.273Z,5.92
2019-05-13T07:08:12.029Z,4.78
2019-05-13T07:10:15.545Z,5.10
2019-05-13T07:12:21.733Z,4.53
2019-05-13T07:14:24.847Z,5.90
2019-05-13T07:16:28.416Z,5.70
2019-05-13T07:18:32.309Z,5.65
2019-05-13T07:20:36.298Z,5.42
2019-05-13T07:22:42.086Z,5.40
2019-05-13T07:24:45.017Z,6.12
2019-05-13T07:26:48.529Z,6.83
2019-05-13T07:28:52.915Z,6.05
2019-05-13T07:30:57.344Z,5.85
2019-05-13T07:33:01.742Z,6.72
2019-05-13T07:35:06.723Z,6.25
2019-05-13T07:37:11.366Z,6.60
2019-05-13T07:39:15.050Z,6.83
2019-05-13T07:41:33.121Z,6.58
2019-05-13T07:43:24.749Z,6.62
2019-05-13T07:45:28.250Z,6.30
2019-05-13T07:47:31.799Z,7.30
2019-05-13T07:49:35.446Z,8.48
2019-05-13T07:51:41.810Z,8.15
2019-05-13T07:53:44.197Z,10.13
2019-05-13T07:55:47.744Z,8.88
2019-05-13T07:57:51.618Z,8.40
2019-05-13T07:59:55.258Z,7.95
2019-05-13T08:01:59.327Z,7.05
2019-05-13T08:04:04.349Z,6.70
2019-05-13T08:06:07.812Z,7.45
2019-05-13T08:08:11.886Z,7.83
2019-05-13T08:10:16.291Z,7.85
2019-05-13T08:12:21.612Z,7.53
2019-05-13T08:14:25.342Z,10.38
2019-05-13T08:16:32.113Z,8.70
2019-05-13T08:18:35.145Z,14.73
2019-05-13T08:20:38.858Z,8.00
2019-05-13T08:22:42.618Z,6.12
2019-05-13T08:24:46.236Z,11.83
2019-05-13T08:26:52.489Z,15.15
2019-05-13T08:29:01.622Z,13.58
2019-05-13T08:31:02.044Z,9.80
2019-05-13T08:33:06.121Z,8.00
2019-05-13T08:35:12.444Z,14.73
2019-05-13T08:37:16.039Z,5.75
2019-05-13T08:39:21.666Z,12.10
2019-05-13T08:41:24.767Z,11.45
2019-05-13T08:43:28.329Z,6.60
2019-05-13T08:45:31.808Z,17.65
2019-05-13T08:47:35.441Z,9.28
2019-05-13T08:49:41.372Z,8.28
2019-05-13T08:51:45.241Z,4.15
2019-05-13T08:53:48.781Z,3.50
2019-05-13T08:55:52.634Z,5.30
2019-05-13T08:57:56.513Z,3.92
2019-05-13T09:00:04.835Z,4.40
2019-05-13T09:02:05.565Z,3.00
2019-05-13T09:04:11.843Z,3.50
2019-05-13T09:06:14.917Z,3.47
2019-05-13T09:08:22.170Z,16.25
2019-05-13T09:10:25.237Z,5.72
2019-05-13T09:12:33.277Z,13.20
2019-05-13T09:14:34.509Z,16.70
2019-05-13T09:16:38.326Z,15.15
2019-05-13T09:18:42.775Z,11.93
2019-05-13T09:20:46.353Z,262.30
2019-05-13T09:22:51.459Z,262.55
2019-05-13T09:24:55.156Z,62.95
2019-05-13T09:26:58.804Z,219.47
2019-05-13T09:29:02.362Z,141.62
2019-05-13T09:31:06.042Z,84.40
2019-05-13T09:33:11.498Z,137.30
2019-05-13T09:35:15.417Z,588.87
2019-05-13T09:37:19.234Z,690.20
2019-05-13T09:39:23.110Z,649.33
2019-05-13T09:41:26.725Z,39.92
2019-05-13T09:43:31.455Z,46.68
2019-05-13T09:45:35.617Z,103.27
2019-05-13T09:47:41.574Z,66.45
2019-05-13T09:49:44.686Z,79.00
2019-05-13T09:51:48.594Z,33.45
2019-05-13T09:53:52.494Z,56.75
2019-05-13T09:55:56.038Z,26.10
2019-05-13T09:58:02.414Z,5.03
2019-05-13T10:00:12.170Z,5.42
2019-05-13T10:02:16.989Z,5.03
2019-05-13T10:04:22.241Z,16.60
2019-05-13T10:06:25.778Z,7.90
2019-05-13T10:08:32.604Z,5.42
2019-05-13T10:10:36.190Z,5.17
2019-05-13T10:12:42.126Z,4.67
2019-05-13T10:14:44.990Z,4.20
2019-05-13T10:16:48.726Z,4.22
2019-05-13T10:18:52.819Z,4.83
2019-05-13T10:20:59.158Z,4.50
2019-05-13T10:23:02.706Z,4.70
2019-05-13T10:25:07.489Z,3.87
2019-05-13T10:27:12.377Z,3.80
2019-05-13T10:29:16.282Z,3.40
2019-05-13T10:31:21.965Z,3.87
2019-05-13T10:33:25.631Z,3.60
2019-05-13T10:35:31.688Z,3.80
2019-05-13T10:37:35.221Z,3.30
2019-05-13T10:39:38.797Z,3.83
2019-05-13T10:41:42.744Z,3.05
2019-05-13T10:43:46.582Z,3.60
2019-05-13T10:45:52.213Z,5.35
2019-05-13T10:47:55.823Z,3.33
2019-05-13T10:50:02.527Z,3.45
2019-05-13T10:52:04.625Z,3.90
2019-05-13T10:54:08.301Z,3.15
2019-05-13T10:56:11.856Z,3.45
2019-05-13T10:58:15.586Z,2.85
2019-05-13T11:00:22.874Z,5.85
2019-05-13T11:02:26.533Z,2.85
2019-05-13T11:04:32.050Z,5.42
2019-05-13T11:06:35.457Z,3.10
2019-05-13T11:08:42.210Z,2.70
2019-05-13T11:10:45.665Z,3.80
2019-05-13T11:12:51.688Z,2.95
2019-05-13T11:14:55.471Z,2.98
2019-05-13T11:17:01.150Z,8.75
2019-05-13T11:19:04.606Z,2.52
2019-05-13T11:21:08.155Z,2.95
2019-05-13T11:23:12.436Z,3.02
2019-05-13T11:25:16.338Z,3.52
2019-05-13T11:27:20.030Z,2.98
2019-05-13T11:29:25.622Z,2.72
2019-05-13T11:31:32.546Z,2.75
2019-05-13T11:33:34.901Z,3.02
2019-05-13T11:35:38.524Z,3.70
2019-05-13T11:37:43.544Z,3.45
2019-05-13T11:39:47.900Z,3.80
2019-05-13T11:41:53.134Z,3.42
2019-05-13T11:44:12.034Z,3.98
2019-05-13T11:46:02.594Z,3.10
2019-05-13T11:48:06.681Z,2.75
2019-05-13T11:50:11.842Z,2.40
2019-05-13T11:52:16.561Z,3.58
2019-05-13T11:54:22.886Z,2.67
2019-05-13T11:56:26.762Z,2.30
2019-05-13T11:58:32.494Z,2.10
2019-05-13T12:00:53.097Z,2.33
2019-05-13T12:02:57.074Z,2.30
2019-05-13T12:05:03.817Z,2.30
2019-05-13T12:07:07.190Z,3.37
2019-05-13T12:09:12.977Z,2.22
2019-05-13T12:11:15.982Z,2.40
2019-05-13T12:13:22.698Z,1.87
2019-05-13T12:15:39.181Z,2.25
2019-05-13T12:17:33.994Z,2.35
2019-05-13T12:19:37.294Z,2.83
2019-05-13T12:21:45.905Z,2.70
2019-05-13T12:23:46.539Z,1.98
2019-05-13T12:25:52.889Z,26.60
2019-05-13T12:27:56.293Z,2.55
2019-05-13T12:30:02.757Z,3.17
2019-05-13T12:32:05.471Z,3.67
2019-05-13T12:34:12.846Z,3.55
2019-05-13T12:36:17.995Z,12.45
2019-05-13T12:38:21.990Z,2.75
2019-05-13T12:40:25.453Z,3.33
2019-05-13T12:42:29.007Z,3.65
2019-05-13T12:44:33.390Z,2.52
2019-05-13T12:46:37.069Z,3.42
2019-05-13T12:48:40.713Z,2.70
2019-05-13T12:50:44.192Z,2.77
2019-05-13T12:52:47.733Z,2.40
2019-05-13T12:54:52.828Z,2.98
2019-05-13T12:56:56.849Z,3.67
2019-05-13T12:59:02.998Z,2.42
2019-05-13T13:01:05.643Z,3.10
2019-05-13T13:03:09.661Z,2.65
2019-05-13T13:05:20.684Z,2.45
2019-05-13T13:09:26.373Z,3.30
2019-05-13T13:11:32.360Z,2.87
2019-05-13T13:13:57.492Z,2.70
2019-05-13T13:15:48.122Z,2.58
2019-05-13T13:17:47.210Z,3.37
2019-05-13T13:19:54.861Z,2.37
2019-05-13T13:24:04.452Z,2.90
2019-05-13T13:26:15.322Z,2.20
2019-05-13T13:28:15.513Z,2.80
2019-05-13T13:30:19.634Z,7.30
2019-05-13T13:32:24.709Z,4.45
2019-05-13T13:34:28.400Z,4.92
2019-05-13T13:36:33.434Z,3.20
2019-05-13T13:38:37.330Z,3.40
2019-05-13T13:40:45.559Z,2.87
2019-05-13T13:42:46.691Z,2.35
2019-05-13T13:44:53.820Z,2.52
2019-05-13T13:46:56.314Z,3.02
2019-05-13T13:49:00.131Z,8.68
2019-05-13T13:51:05.246Z,2.08
2019-05-13T13:53:13.509Z,2.22
2019-05-13T13:57:25.535Z,1.92
2019-05-13T13:59:26.540Z,2.00
2019-05-13T14:01:33.301Z,2.02
2019-05-13T14:03:35.660Z,2.37
2019-05-13T14:05:42.818Z,6.70
2019-05-13T14:06:52.391Z,2.50
2019-05-13T14:06:59.165Z,2.62
2019-05-13T14:07:45.746Z,4.47
2019-05-13T14:09:51.319Z,11.57
2019-05-13T14:11:54.725Z,9.78
2019-05-13T14:13:58.195Z,7.10
2019-05-13T14:16:02.077Z,34.48
2019-05-13T14:18:05.951Z,9.85
2019-05-13T14:20:10.133Z,6.95
2019-05-13T14:22:13.674Z,3.40
2019-05-13T14:24:17.214Z,2.52
2019-05-13T14:26:24.101Z,1.92
2019-05-13T14:28:27.639Z,3.62
2019-05-13T14:30:31.364Z,2.17
2019-05-13T14:32:35.178Z,1.57
2019-05-13T14:34:38.744Z,2.33
2019-05-13T14:36:42.309Z,1.42
2019-05-13T14:38:45.845Z,2.47
2019-05-13T14:40:51.726Z,3.87
2019-05-13T14:42:54.588Z,2.35
2019-05-13T14:44:58.485Z,3.02
2019-05-13T14:47:02.362Z,1.77
2019-05-13T14:49:06.386Z,2.20
2019-05-13T14:51:12.274Z,1.90
2019-05-13T14:53:16.221Z,2.10
2019-05-13T14:55:21.480Z,2.22
2019-05-13T14:57:25.974Z,1.95
2019-05-13T14:59:31.478Z,1.72
2019-05-13T15:01:35.227Z,1.50
2019-05-13T15:03:38.753Z,1.82
2019-05-13T15:05:44.858Z,1.80
2019-05-13T15:07:48.683Z,1.98
2019-05-13T15:09:52.205Z,2.22
2019-05-13T15:11:56.075Z,2.22
2019-05-13T15:14:02.226Z,2.87
2019-05-13T15:16:04.777Z,2.15
2019-05-13T15:18:09.718Z,2.37
2019-05-13T15:20:13.890Z,3.75
2019-05-13T15:22:17.905Z,2.17
2019-05-13T15:24:21.527Z,2.17
2019-05-13T15:26:28.149Z,2.22
2019-05-13T15:28:32.098Z,2.40
2019-05-13T15:30:35.726Z,3.05
2019-05-13T15:32:41.877Z,2.10
2019-05-13T15:34:44.818Z,2.27
2019-05-13T15:36:50.764Z,2.12
2019-05-13T15:38:54.413Z,2.17
2019-05-13T15:40:58.021Z,2.62
2019-05-13T15:43:02.458Z,2.02
2019-05-13T15:45:07.536Z,2.27
2019-05-13T15:47:22.916Z,2.27
2019-05-13T15:49:17.117Z,8.63
2019-05-13T15:51:22.264Z,26.65
2019-05-13T15:53:26.252Z,8.70
2019-05-13T15:55:29.906Z,15.68
2019-05-13T15:57:34.981Z,19.23
2019-05-13T15:59:41.368Z,18.57
2019-05-13T16:01:45.442Z,11.83
2019-05-13T16:03:49.030Z,12.60
2019-05-13T16:05:52.941Z,9.80
2019-05-13T16:07:56.489Z,11.60
2019-05-13T16:10:02.025Z,13.18
2019-05-13T16:12:05.636Z,10.38
2019-05-13T16:14:11.415Z,6.45
2019-05-13T16:16:14.843Z,12.23
2019-05-13T16:18:19.260Z,11.95
2019-05-13T16:20:23.289Z,8.55
2019-05-13T16:22:28.070Z,27.35
2019-05-13T16:24:32.278Z,64.85
2019-05-13T16:26:35.941Z,46.50
2019-05-13T16:28:41.877Z,67.82
2019-05-13T16:30:46.065Z,16.55
2019-05-13T16:32:52.076Z,19.45
2019-05-13T16:34:55.410Z,12.95
2019-05-13T16:37:01.636Z,13.72
2019-05-13T16:39:06.369Z,10.82
2019-05-13T16:41:12.530Z,11.28
2019-05-13T16:43:16.815Z,5.45
2019-05-13T16:45:21.831Z,15.93
2019-05-13T16:47:25.565Z,13.65
2019-05-13T16:49:29.145Z,21.07
2019-05-13T16:51:32.918Z,12.37
2019-05-13T16:53:36.475Z,30.20
2019-05-13T16:55:41.697Z,11.33
2019-05-13T16:57:45.842Z,14.07
2019-05-13T16:59:51.737Z,16.23
2019-05-13T17:01:55.105Z,14.07
2019-05-13T17:03:58.586Z,21.10
2019-05-13T17:06:02.412Z,15.48
2019-05-13T17:08:06.381Z,14.07
2019-05-13T17:10:12.472Z,16.27
2019-05-13T17:12:16.274Z,14.07
2019-05-13T17:14:21.582Z,12.00
2019-05-13T17:16:25.280Z,13.30
2019-05-13T17:18:29.186Z,12.88
2019-05-13T17:20:33.113Z,15.93
2019-05-13T17:22:37.526Z,29.25
2019-05-13T17:24:42.652Z,29.07
2019-05-13T17:26:47.280Z,45.15
2019-05-13T17:28:51.952Z,47.13
2019-05-13T17:30:55.994Z,35.68
2019-05-13T17:33:02.099Z,23.62
2019-05-13T17:35:06.360Z,28.00
2019-05-13T17:37:11.699Z,29.23
2019-05-13T17:39:15.481Z,30.72
2019-05-13T17:41:21.250Z,15.75
2019-05-13T17:43:24.290Z,12.68
2019-05-13T17:45:27.835Z,21.85
2019-05-13T17:47:31.753Z,25.95
2019-05-13T17:49:35.742Z,23.80
2019-05-13T17:51:39.659Z,23.90
2019-05-13T17:53:43.261Z,31.48
2019-05-13T17:55:47.145Z,40.45
2019-05-13T17:57:51.669Z,41.77
2019-05-13T17:59:55.219Z,49.73
2019-05-13T18:01:58.907Z,41.45
2019-05-13T18:04:02.564Z,34.70
2019-05-13T18:06:07.483Z,36.20
2019-05-13T18:08:11.360Z,26.95
2019-05-13T18:10:19.157Z,29.32
2019-05-13T18:12:22.894Z,23.22
2019-05-13T18:14:26.907Z,14.45
2019-05-13T18:16:32.410Z,10.58
2019-05-13T18:18:46.288Z,13.15
2019-05-13T18:20:41.657Z,15.40
2019-05-13T18:22:47.660Z,26.87
2019-05-13T18:24:51.883Z,25.20
2019-05-13T18:26:55.962Z,31.25
2019-05-13T18:29:02.653Z,29.98
2019-05-13T18:31:06.533Z,23.32
2019-05-13T18:33:11.784Z,26.45
2019-05-13T18:35:15.891Z,24.80
2019-05-13T18:37:22.003Z,25.85
2019-05-13T18:39:27.010Z,29.48
2019-05-13T18:41:31.664Z,28.30
2019-05-13T18:43:35.315Z,26.15
2019-05-13T18:45:38.943Z,24.65
2019-05-13T18:47:43.768Z,25.20
2019-05-13T18:49:47.420Z,15.78
2019-05-13T18:51:51.418Z,11.88
2019-05-13T18:53:54.952Z,10.93
2019-05-13T18:55:58.818Z,10.75
2019-05-13T18:58:02.286Z,11.10
2019-05-13T19:00:07.097Z,14.18
2019-05-13T19:02:12.250Z,14.95
2019-05-13T19:04:16.014Z,13.83
2019-05-13T19:06:22.215Z,15.75
2019-05-13T19:08:27.538Z,25.15
2019-05-13T19:10:31.356Z,21.23
2019-05-13T19:12:35.414Z,24.15
2019-05-13T19:14:41.203Z,16.82
2019-05-13T19:16:44.507Z,18.65
2019-05-13T19:18:48.177Z,26.45
2019-05-13T19:20:53.285Z,40.52
2019-05-13T19:22:56.937Z,17.75
2019-05-13T19:25:01.151Z,15.08
2019-05-13T19:27:06.105Z,13.13
2019-05-13T19:29:11.497Z,16.93
2019-05-13T19:31:15.441Z,16.93
2019-05-13T19:33:19.347Z,12.82
2019-05-13T19:35:23.273Z,13.40
2019-05-13T19:37:27.670Z,12.50
2019-05-13T19:39:31.885Z,12.23
2019-05-13T19:41:35.525Z,14.58
2019-05-13T19:43:39.146Z,18.12
2019-05-13T19:45:42.973Z,19.30
2019-05-13T19:47:47.601Z,82.30
2019-05-13T19:49:52.335Z,86.55
2019-05-13T19:51:56.564Z,26.48
2019-05-13T19:54:01.260Z,51.68
2019-05-13T19:56:05.021Z,11.38
2019-05-13T19:58:08.553Z,8.80
2019-05-13T20:00:14.219Z,11.38
2019-05-13T20:02:18.242Z,12.07
2019-05-13T20:04:21.904Z,11.93
2019-05-13T20:06:25.817Z,10.60
2019-05-13T20:08:31.834Z,13.50
2019-05-13T20:10:35.257Z,16.42
2019-05-13T20:12:38.729Z,13.30
2019-05-13T20:14:43.150Z,17.45
2019-05-13T20:16:46.684Z,15.93
2019-05-13T20:18:51.772Z,56.68
2019-05-13T20:20:55.809Z,17.92
2019-05-13T20:23:01.408Z,11.18
2019-05-13T20:25:06.200Z,25.52
2019-05-13T20:27:11.839Z,20.25
2019-05-13T20:29:15.322Z,10.03
2019-05-13T20:31:19.131Z,10.03
2019-05-13T20:33:23.024Z,14.63
2019-05-13T20:35:26.565Z,20.55
2019-05-13T20:37:32.047Z,15.03
2019-05-13T20:39:36.361Z,14.23
2019-05-13T20:41:41.420Z,27.00
2019-05-13T20:43:45.909Z,57.48
2019-05-13T20:45:51.799Z,49.45
2019-05-13T20:47:55.388Z,29.63
2019-05-13T20:50:02.088Z,59.85
2019-05-13T20:52:04.524Z,30.15
2019-05-13T20:54:08.138Z,22.22
2019-05-13T20:56:11.695Z,46.98
2019-05-13T20:58:16.150Z,16.02
2019-05-13T21:00:20.036Z,16.75
2019-05-13T21:02:23.942Z,23.20
2019-05-13T21:04:27.884Z,11.22
2019-05-13T21:06:31.652Z,29.30
2019-05-13T21:08:35.658Z,33.15
2019-05-13T21:10:42.198Z,22.32
2019-05-13T21:12:45.621Z,20.57
2019-05-13T21:14:51.226Z,20.25
2019-05-13T21:16:54.829Z,28.38
2019-05-13T21:18:58.441Z,23.67
2019-05-13T21:21:02.089Z,21.82
2019-05-13T21:23:05.694Z,17.57
2019-05-13T21:25:10.373Z,19.45
2019-05-13T21:27:14.246Z,26.25
2019-05-13T21:29:18.078Z,22.50
2019-05-13T21:31:21.656Z,21.65
2019-05-13T21:33:25.206Z,20.37
2019-05-13T21:35:31.523Z,18.23
2019-05-13T21:37:34.602Z,12.93
2019-05-13T21:39:38.530Z,13.03
2019-05-13T21:41:42.202Z,13.83
2019-05-13T21:43:46.031Z,12.95
2019-05-13T21:45:52.096Z,12.15
2019-05-13T21:47:54.825Z,20.37
2019-05-13T21:49:58.575Z,15.63
2019-05-13T21:52:02.219Z,10.65
2019-05-13T21:54:05.790Z,7.65
2019-05-13T21:56:09.318Z,7.58
2019-05-13T21:58:14.176Z,7.35
2019-05-13T22:00:23.444Z,7.15
2019-05-13T22:02:26.786Z,9.20
2019-05-13T22:04:31.194Z,8.28
2019-05-13T22:06:35.507Z,11.28
2019-05-13T22:08:41.275Z,11.45
2019-05-13T22:10:45.322Z,10.75
2019-05-13T22:12:48.989Z,8.20
2019-05-13T22:14:52.553Z,7.80
2019-05-13T22:16:56.607Z,8.75
2019-05-13T22:19:01.497Z,8.70
2019-05-13T22:21:05.429Z,8.35
2019-05-13T22:23:09.353Z,8.20
2019-05-13T22:25:12.881Z,7.58
2019-05-13T22:27:16.502Z,7.92
2019-05-13T22:29:23.019Z,7.22
2019-05-13T22:31:25.463Z,7.60
2019-05-13T22:33:28.993Z,8.63
2019-05-13T22:35:32.478Z,11.05
2019-05-13T22:37:36.421Z,8.80
2019-05-13T22:39:42.070Z,7.20
2019-05-13T22:41:45.452Z,6.50
2019-05-13T22:43:55.647Z,6.58
2019-05-13T22:45:54.644Z,7.17
2019-05-13T22:47:58.523Z,7.97
2019-05-13T22:50:02.304Z,7.75
2019-05-13T22:52:05.966Z,7.12
2019-05-13T22:54:11.649Z,7.80
2019-05-13T22:56:14.826Z,8.78
2019-05-13T22:58:18.327Z,8.78
2019-05-13T23:00:23.267Z,8.38
2019-05-13T23:02:26.781Z,7.87
2019-05-13T23:04:31.363Z,6.95
2019-05-13T23:06:35.449Z,8.50
2019-05-13T23:08:39.333Z,8.18
2019-05-13T23:10:43.138Z,8.15
2019-05-13T23:12:46.612Z,8.90
2019-05-13T23:14:52.099Z,9.83
2019-05-13T23:16:55.665Z,10.72
2019-05-13T23:18:59.469Z,9.18
2019-05-13T23:21:03.403Z,10.23
2019-05-13T23:23:06.933Z,9.98
2019-05-13T23:25:12.181Z,9.78
2019-05-13T23:27:16.210Z,9.20
2019-05-13T23:29:21.421Z,12.28
2019-05-13T23:31:25.009Z,9.53
2019-05-13T23:33:28.705Z,10.50
2019-05-13T23:35:32.521Z,9.48
2019-05-13T23:37:36.057Z,9.48
2019-05-13T23:39:41.543Z,9.38
2019-05-13T23:41:44.697Z,10.45
2019-05-13T23:43:48.174Z,12.47
2019-05-13T23:45:52.075Z,11.95
2019-05-13T23:47:55.981Z,10.75
2019-05-13T23:50:01.718Z,10.18
2019-05-13T23:52:05.217Z,10.60
2019-05-13T23:54:09.025Z,10.32
2019-05-13T23:56:12.490Z,9.53
2019-05-13T23:58:16.113Z,9.70
